createdAt,value
2023-07-08T00:02:09.120Z,2
2023-07-08T00:14:08.986Z,1
2023-07-08T00:26:08.952Z,1
2023-07-08T00:38:08.894Z,1
2023-07-08T00:50:09.100Z,1
2023-07-08T01:02:09.061Z,1
2023-07-08T01:14:09.113Z,1
2023-07-08T01:26:09.152Z,1
2023-07-08T01:38:09.105Z,1
2023-07-08T01:50:09.053Z,1
2023-07-08T02:02:09.007Z,1
2023-07-08T02:14:09.178Z,1
2023-07-08T02:26:09.142Z,1
2023-07-08T02:38:09.057Z,1
2023-07-08T02:50:09.299Z,1
2023-07-08T03:02:09.191Z,3
2023-07-08T03:14:09.271Z,8
2023-07-08T03:26:09.117Z,23
2023-07-08T03:38:09.328Z,44
2023-07-08T03:50:09.238Z,63
2023-07-08T04:02:09.187Z,75
2023-07-08T04:14:09.130Z,84
2023-07-08T04:26:09.303Z,88
2023-07-08T04:38:09.346Z,89
2023-07-08T04:50:09.289Z,91
2023-07-08T05:02:09.435Z,94
2023-07-08T05:14:09.338Z,94
2023-07-08T05:26:09.279Z,95
2023-07-08T05:38:09.291Z,95
2023-07-08T05:50:09.390Z,96
2023-07-08T06:02:09.376Z,96
2023-07-08T06:14:09.349Z,96
2023-07-08T06:26:09.316Z,97
2023-07-08T06:38:09.423Z,97
2023-07-08T06:50:09.424Z,97
2023-07-08T07:02:09.322Z,97
2023-07-08T07:26:09.446Z,98
2023-07-08T07:38:09.449Z,98
2023-07-08T07:50:09.376Z,97
2023-07-08T08:02:09.680Z,97
2023-07-08T08:14:09.598Z,97
2023-07-08T08:26:09.450Z,96
2023-07-08T08:38:09.420Z,95
2023-07-08T08:50:09.610Z,96
2023-07-08T09:02:09.742Z,97
2023-07-08T09:14:09.726Z,96
2023-07-08T09:26:09.708Z,95
2023-07-08T09:38:09.607Z,95
2023-07-08T09:50:09.576Z,96
2023-07-08T10:02:09.730Z,96
2023-07-08T10:14:14.214Z,96
2023-07-08T10:26:09.635Z,96
2023-07-08T10:38:09.579Z,96
2023-07-08T10:50:09.562Z,96
2023-07-08T11:02:09.706Z,95
2023-07-08T11:14:09.835Z,95
2023-07-08T11:26:09.748Z,96
2023-07-08T11:38:09.768Z,97
2023-07-08T11:50:10.612Z,96
2023-07-08T12:02:09.691Z,97
2023-07-08T12:14:09.752Z,97
2023-07-08T12:26:09.847Z,97
2023-07-08T12:38:09.733Z,97
2023-07-08T12:50:09.740Z,97
2023-07-08T13:02:09.701Z,97
2023-07-08T13:14:09.887Z,97
2023-07-08T13:26:09.806Z,97
2023-07-08T13:38:09.761Z,96
2023-07-08T13:50:09.696Z,95
2023-07-08T14:02:10.009Z,92
2023-07-08T14:14:09.850Z,90
2023-07-08T14:26:09.887Z,86
2023-07-08T14:38:09.957Z,76
2023-07-08T16:02:00.354Z,94
2023-07-08T16:14:00.411Z,95
2023-07-08T16:26:00.274Z,95
2023-07-08T16:38:00.389Z,91
2023-07-08T16:50:00.438Z,91
2023-07-08T17:14:00.288Z,88
2023-07-08T17:26:00.417Z,95
2023-07-08T17:38:00.372Z,96
2023-07-08T17:50:00.381Z,94
2023-07-08T18:02:00.517Z,95
2023-07-08T18:14:00.394Z,95
2023-07-08T18:26:00.681Z,95
2023-07-08T18:38:00.489Z,94
2023-07-08T18:50:00.669Z,94
2023-07-08T19:02:00.407Z,89
2023-07-08T19:14:00.483Z,82
2023-07-08T19:26:00.728Z,81
2023-07-08T19:38:00.576Z,81
2023-07-08T19:50:00.470Z,78
2023-07-08T20:02:00.477Z,79
2023-07-08T20:14:00.612Z,63
2023-07-08T20:26:00.818Z,16
2023-07-08T20:38:00.459Z,20
2023-07-08T20:50:00.702Z,16
2023-07-08T21:02:00.659Z,2
2023-07-08T21:14:00.614Z,2
2023-07-08T21:26:00.646Z,1
2023-07-08T21:38:00.740Z,1
2023-07-08T21:50:00.635Z,1
2023-07-08T22:02:00.613Z,1
2023-07-08T22:14:00.575Z,1
2023-07-08T22:26:00.743Z,1
2023-07-08T22:38:00.656Z,1
2023-07-08T22:50:00.645Z,1
2023-07-08T23:02:00.623Z,1
2023-07-08T23:14:00.823Z,1
2023-07-08T23:26:00.942Z,1
2023-07-08T23:38:00.683Z,1
2023-07-08T23:50:00.904Z,1
